Terminal Aerodrome Forecast
Issued by NWS

Home | Current Version | Previous Version | Text Only | Print | Product List | Glossary On
Versions: 1 2 3 4 5 6 7 8 9 10 11 12 13 14 15 16 17 18 19 20 21 22 23 24 25
000
FTAK31 PANC 221558 AAA
TAFAHO
TAF AMD
PAHO 221558Z 2216/2312 VRB03KT P6SM VCSH SCT015 BKN060
      TEMPO 2216/2220 6SM -SHSN BKN015 OVC060=

USA.gov is the U.S. government's official web portal to all federal, state and local government web resources and services.